CheckWX is a tool to help pilots better visualize weather data.  It is not intended as a substitute for an official pre-flight weather briefing.

12:42:49 UTC

KLVK TAF
Livermore Municipal Airport
Livermore, California, USA
KLVK 271138Z 2712/2812 25007KT P6SM SCT020 TEMPO 2712/2715 BKN020 FM271800 25013KT P6SM SKC FM280400 25007KT P6SM FEW025 SCT200 FM280800 32004KT P6SM BKN020 BKN200

Jun-27@
12:00 UTC

Jun-27 @ 12:00 UTC

Jun-27@
18:00 UTC

Jun-27 @ 18:00 UTC

KLVK 271138Z 2712/2812 25007KT P6SM SCT020
Wind
  • 250° at 7 KTS
Cloud Levels
  • Scattered at 2,000' AGL

Jun-27@
12:00 UTC

Jun-27 @ 12:00 UTC

Jun-27@
15:00 UTC

Jun-27 @ 15:00 UTC

TEMPO 2712/2715 BKN020

Temporary

Temporary Changes expected for less than half the time period

Cloud Levels
  • Broken at 2,000' AGL

Jun-27@
18:00 UTC

Jun-27 @ 18:00 UTC

Jun-28@
04:00 UTC

Jun-28 @ 04:00 UTC

FM271800 25013KT P6SM SKC

From

From Standard forecast or significant change

Wind
  • 250° at 13 KTS
Cloud Levels
  • Clear skies

Jun-28@
04:00 UTC

Jun-28 @ 04:00 UTC

Jun-28@
08:00 UTC

Jun-28 @ 08:00 UTC

FM280400 25007KT P6SM FEW025 SCT200

From

From Standard forecast or significant change

Wind
  • 250° at 7 KTS
Cloud Levels
  • Few at 2,500' AGL
  • Scattered at 20,000' AGL

Jun-28@
08:00 UTC

Jun-28 @ 08:00 UTC

Jun-28@
12:00 UTC

Jun-28 @ 12:00 UTC

FM280800 32004KT P6SM BKN020 BKN200

From

From Standard forecast or significant change

Wind
  • 320° at 4 KTS
Cloud Levels
  • Broken at 2,000' AGL
  • Broken at 20,000' AGL